createdAt,value
2022-11-30T00:00:41.757Z,315.00
2022-11-30T00:01:41.760Z,315.00
2022-11-30T00:02:41.877Z,315.00
2022-11-30T00:03:41.752Z,315.00
2022-11-30T00:04:41.772Z,315.00
2022-11-30T00:05:41.794Z,315.00
2022-11-30T00:06:41.760Z,315.00
2022-11-30T00:07:41.822Z,315.00
2022-11-30T00:08:41.775Z,315.00
2022-11-30T00:09:41.775Z,315.00
2022-11-30T00:10:41.786Z,315.00
2022-11-30T00:11:41.785Z,315.00
2022-11-30T00:12:41.766Z,315.00
2022-11-30T00:13:41.784Z,315.00
2022-11-30T00:14:41.759Z,315.00
2022-11-30T00:15:41.794Z,315.00
2022-11-30T00:16:41.805Z,315.00
2022-11-30T00:17:41.770Z,315.00
2022-11-30T00:18:41.779Z,315.00
2022-11-30T00:19:41.774Z,315.00
2022-11-30T00:20:41.785Z,315.00
2022-11-30T00:21:41.794Z,315.00
2022-11-30T00:22:41.809Z,315.00
2022-11-30T00:23:41.794Z,315.00
2022-11-30T00:24:41.792Z,315.00
2022-11-30T00:25:41.775Z,315.00
2022-11-30T00:26:41.812Z,315.00
2022-11-30T00:27:41.820Z,315.00
2022-11-30T00:28:41.795Z,315.00
2022-11-30T00:29:41.809Z,315.00
2022-11-30T00:30:41.831Z,315.00
2022-11-30T00:31:41.799Z,315.00
2022-11-30T00:32:41.781Z,315.00
2022-11-30T00:33:41.770Z,315.00
2022-11-30T00:34:41.895Z,315.00
2022-11-30T00:35:41.794Z,315.00
2022-11-30T00:36:41.796Z,315.00
2022-11-30T00:37:41.789Z,315.00
2022-11-30T00:38:41.783Z,315.00
2022-11-30T00:39:41.776Z,315.00
2022-11-30T00:40:41.794Z,315.00
2022-11-30T00:41:41.810Z,315.00
2022-11-30T00:42:41.815Z,315.00
2022-11-30T00:43:41.798Z,315.00
2022-11-30T00:44:41.795Z,315.00
2022-11-30T00:45:41.841Z,315.00
2022-11-30T00:46:41.813Z,315.00
2022-11-30T00:47:41.820Z,9.01
2022-11-30T00:48:41.820Z,90.00
2022-11-30T00:49:41.820Z,90.00
2022-11-30T00:50:41.831Z,328.95
2022-11-30T00:51:41.816Z,315.00
2022-11-30T00:52:41.803Z,315.00
2022-11-30T00:53:41.824Z,315.00
2022-11-30T00:54:41.809Z,315.00
2022-11-30T00:55:41.844Z,315.00
2022-11-30T00:56:41.826Z,315.00
2022-11-30T00:57:41.842Z,315.00
2022-11-30T00:58:41.792Z,315.00
2022-11-30T00:59:41.822Z,315.00
2022-11-30T01:00:41.797Z,315.00
2022-11-30T01:01:41.878Z,315.00
2022-11-30T01:02:41.894Z,315.00
2022-11-30T01:03:41.834Z,315.00
2022-11-30T01:04:41.815Z,315.00
2022-11-30T01:05:41.845Z,315.00
2022-11-30T01:06:41.847Z,315.00
2022-11-30T01:07:41.894Z,315.00
2022-11-30T01:08:41.825Z,315.00
2022-11-30T01:09:41.834Z,315.00
2022-11-30T01:10:41.814Z,315.00
2022-11-30T01:11:41.813Z,315.00
2022-11-30T01:12:41.842Z,315.00
2022-11-30T01:13:41.872Z,315.00
2022-11-30T01:14:41.841Z,315.00
2022-11-30T01:15:41.934Z,315.00
2022-11-30T01:16:41.882Z,315.00
2022-11-30T01:17:41.887Z,315.00
2022-11-30T01:18:41.897Z,315.00
2022-11-30T01:19:41.932Z,315.00
2022-11-30T01:20:41.950Z,315.00
2022-11-30T01:21:41.965Z,315.00
2022-11-30T01:22:41.960Z,315.00
2022-11-30T01:23:41.967Z,315.00
2022-11-30T01:24:41.976Z,315.00
2022-11-30T01:25:42.013Z,315.00
2022-11-30T01:26:42.034Z,315.00
2022-11-30T01:27:42.027Z,315.00
2022-11-30T01:28:42.030Z,315.00
2022-11-30T01:29:42.056Z,315.00
2022-11-30T01:30:42.086Z,315.00
2022-11-30T01:31:42.059Z,315.00
2022-11-30T01:32:42.083Z,315.00
2022-11-30T01:33:42.090Z,315.00
2022-11-30T01:34:42.106Z,315.00
2022-11-30T01:35:42.125Z,315.00
2022-11-30T01:36:42.118Z,315.00
2022-11-30T01:37:42.145Z,315.00
2022-11-30T01:38:42.219Z,315.00
2022-11-30T01:39:42.174Z,315.00
2022-11-30T01:40:42.206Z,315.00
2022-11-30T01:41:42.206Z,315.00
2022-11-30T01:42:42.229Z,315.00
2022-11-30T01:43:42.205Z,315.00
2022-11-30T01:44:42.192Z,315.00
2022-11-30T01:45:42.233Z,315.00
2022-11-30T01:46:42.251Z,315.00
2022-11-30T01:47:42.302Z,315.00
2022-11-30T01:48:42.365Z,315.00
2022-11-30T01:49:42.277Z,315.00
2022-11-30T01:50:42.287Z,315.00
2022-11-30T01:51:42.312Z,315.00
2022-11-30T01:52:42.328Z,315.00
2022-11-30T01:53:42.332Z,315.00
2022-11-30T01:54:42.330Z,315.00
2022-11-30T01:55:42.383Z,315.00
2022-11-30T01:56:42.369Z,315.00
2022-11-30T01:57:42.403Z,315.00
2022-11-30T01:58:42.402Z,315.00
2022-11-30T01:59:42.397Z,315.00
2022-11-30T02:01:12.425Z,315.00
2022-11-30T02:02:12.455Z,315.00
2022-11-30T02:03:12.404Z,315.00
2022-11-30T02:04:12.402Z,315.00
2022-11-30T02:05:12.400Z,315.00
2022-11-30T02:06:12.398Z,317.84
2022-11-30T02:07:12.441Z,315.00
2022-11-30T02:08:12.464Z,315.00
2022-11-30T02:09:12.408Z,315.00
2022-11-30T02:10:12.438Z,315.00
2022-11-30T02:11:12.420Z,315.00
2022-11-30T02:12:12.447Z,315.00
2022-11-30T02:13:12.421Z,315.00
2022-11-30T02:14:12.419Z,315.00
2022-11-30T02:15:12.424Z,315.00
2022-11-30T02:16:12.483Z,315.00
2022-11-30T02:17:12.432Z,315.00
2022-11-30T02:18:12.421Z,315.00
2022-11-30T02:19:12.389Z,315.00
2022-11-30T02:20:12.429Z,315.00
2022-11-30T02:21:12.441Z,315.00
2022-11-30T02:22:12.432Z,315.00
2022-11-30T02:23:12.435Z,315.00
2022-11-30T02:24:12.424Z,315.00
2022-11-30T02:25:12.440Z,315.00
2022-11-30T02:26:12.438Z,315.00
2022-11-30T02:27:12.419Z,315.00
2022-11-30T02:28:12.460Z,315.00
2022-11-30T02:29:12.449Z,315.00
2022-11-30T02:30:12.433Z,315.00
2022-11-30T02:31:12.521Z,315.00
2022-11-30T02:32:12.444Z,315.00
2022-11-30T02:33:12.453Z,315.00
2022-11-30T02:34:12.426Z,315.00
2022-11-30T02:35:12.445Z,315.00
2022-11-30T02:36:12.577Z,315.00
2022-11-30T02:37:12.595Z,315.00
2022-11-30T02:38:12.615Z,315.00
2022-11-30T02:39:12.607Z,315.00
2022-11-30T02:40:12.617Z,315.00
2022-11-30T02:41:12.633Z,315.00
2022-11-30T02:42:12.625Z,315.00
2022-11-30T02:43:12.673Z,315.00
2022-11-30T02:44:12.643Z,315.00
2022-11-30T02:45:12.695Z,315.00
2022-11-30T02:46:12.741Z,315.00
2022-11-30T02:47:12.712Z,315.00
2022-11-30T02:48:12.735Z,315.00
2022-11-30T02:49:12.717Z,315.00
2022-11-30T02:50:12.708Z,315.00
2022-11-30T02:51:12.738Z,315.00
2022-11-30T02:52:12.777Z,315.00
2022-11-30T02:53:12.789Z,315.00
2022-11-30T02:54:12.820Z,315.00
2022-11-30T02:55:12.814Z,315.00
2022-11-30T02:56:12.799Z,315.00
2022-11-30T02:57:12.852Z,315.00
2022-11-30T02:58:12.845Z,315.00
2022-11-30T02:59:12.882Z,315.00
2022-11-30T03:00:12.873Z,315.00
2022-11-30T03:01:12.919Z,315.00
2022-11-30T03:02:12.884Z,315.00
2022-11-30T03:03:12.906Z,315.00
2022-11-30T03:04:12.914Z,315.00
2022-11-30T03:05:12.932Z,315.00
2022-11-30T03:06:12.958Z,315.00
2022-11-30T03:07:12.924Z,315.00
2022-11-30T03:08:12.955Z,315.00
2022-11-30T03:09:12.944Z,315.00
2022-11-30T03:10:12.973Z,315.00
2022-11-30T03:11:13.024Z,315.00
2022-11-30T03:12:12.983Z,315.00
2022-11-30T03:13:13.019Z,315.00
2022-11-30T03:14:13.023Z,315.00
2022-11-30T03:15:13.021Z,315.00
2022-11-30T03:16:13.133Z,315.00
2022-11-30T03:17:13.075Z,315.00
2022-11-30T03:18:13.079Z,315.00
2022-11-30T03:19:13.114Z,315.00
2022-11-30T03:20:13.106Z,315.00
2022-11-30T03:21:13.135Z,315.00
2022-11-30T03:22:13.144Z,315.00
2022-11-30T03:23:13.138Z,315.00
2022-11-30T03:24:13.131Z,315.00
2022-11-30T03:25:13.171Z,315.00
2022-11-30T03:26:13.199Z,315.00
2022-11-30T03:27:13.183Z,315.00
2022-11-30T03:28:13.168Z,315.00
2022-11-30T03:29:13.196Z,315.00
2022-11-30T03:30:13.195Z,315.00
2022-11-30T03:31:13.271Z,315.00
2022-11-30T03:32:13.233Z,315.00
2022-11-30T03:33:13.253Z,315.00
2022-11-30T03:34:13.242Z,315.00
2022-11-30T03:35:13.281Z,315.00
2022-11-30T03:36:13.296Z,315.00
2022-11-30T03:37:13.301Z,315.00
2022-11-30T03:38:13.327Z,315.00
2022-11-30T03:39:13.323Z,315.00
2022-11-30T03:40:13.334Z,315.00
2022-11-30T03:41:13.331Z,315.00
2022-11-30T03:42:13.361Z,315.00
2022-11-30T03:43:13.406Z,315.00
2022-11-30T03:44:13.385Z,315.00
2022-11-30T03:45:13.389Z,315.00
2022-11-30T03:46:13.471Z,315.00
2022-11-30T03:47:13.403Z,315.00
2022-11-30T03:48:13.431Z,315.00
2022-11-30T03:49:13.436Z,315.00
2022-11-30T03:50:13.466Z,315.00
2022-11-30T03:51:13.454Z,315.00
2022-11-30T03:52:13.465Z,315.00
2022-11-30T03:53:13.490Z,315.00
2022-11-30T03:54:13.492Z,315.00
2022-11-30T03:55:13.527Z,315.00
2022-11-30T03:56:13.509Z,315.00
2022-11-30T03:57:13.528Z,315.00
2022-11-30T03:58:13.535Z,315.00
2022-11-30T03:59:13.566Z,315.00
2022-11-30T04:00:13.585Z,315.00
2022-11-30T04:01:13.593Z,315.00
2022-11-30T04:02:13.638Z,315.00
2022-11-30T04:03:13.653Z,315.00
2022-11-30T04:04:13.630Z,315.00
2022-11-30T04:05:13.638Z,315.00
2022-11-30T04:06:13.642Z,315.00
2022-11-30T04:07:13.887Z,315.00
2022-11-30T04:08:13.666Z,315.00
2022-11-30T04:09:13.672Z,315.00
2022-11-30T04:10:13.714Z,315.00
2022-11-30T04:11:13.691Z,315.00
2022-11-30T04:12:13.729Z,315.00
2022-11-30T04:13:13.728Z,315.00
2022-11-30T04:14:13.743Z,315.00
2022-11-30T04:15:13.770Z,315.00
2022-11-30T04:16:13.856Z,315.00
2022-11-30T04:17:13.757Z,315.00
2022-11-30T04:18:13.777Z,315.00
2022-11-30T04:19:13.804Z,315.00
2022-11-30T04:20:13.808Z,315.00
2022-11-30T04:21:13.822Z,315.00
2022-11-30T04:22:13.842Z,315.00
2022-11-30T04:23:13.823Z,315.00
2022-11-30T04:24:13.865Z,315.00
2022-11-30T04:25:13.879Z,315.00
2022-11-30T04:26:13.906Z,315.00
2022-11-30T04:27:13.905Z,315.00
2022-11-30T04:28:13.911Z,315.00
2022-11-30T04:29:13.907Z,315.00
2022-11-30T04:30:13.931Z,315.00
2022-11-30T04:31:13.964Z,315.00
2022-11-30T04:32:13.983Z,315.00
2022-11-30T04:33:13.960Z,315.00
2022-11-30T04:34:13.985Z,315.00
2022-11-30T04:35:13.998Z,315.00
2022-11-30T04:36:14.007Z,315.00
2022-11-30T04:37:14.022Z,315.00
2022-11-30T04:38:14.035Z,315.00
2022-11-30T04:39:14.040Z,315.00
2022-11-30T04:40:14.053Z,315.00
2022-11-30T04:41:14.068Z,315.00
2022-11-30T04:42:14.068Z,315.00
2022-11-30T04:43:14.139Z,315.00
2022-11-30T04:44:14.095Z,315.00
2022-11-30T04:45:14.097Z,315.00
2022-11-30T04:46:14.185Z,315.00
2022-11-30T04:47:14.131Z,315.00
2022-11-30T04:48:14.150Z,315.00
2022-11-30T04:49:14.156Z,315.00
2022-11-30T04:50:14.174Z,315.00
2022-11-30T04:51:14.171Z,315.00
2022-11-30T04:52:14.213Z,315.00
2022-11-30T04:53:14.224Z,315.00
2022-11-30T04:54:14.222Z,315.00
2022-11-30T04:55:14.240Z,315.00
2022-11-30T04:56:14.272Z,315.00
2022-11-30T04:57:14.239Z,315.00
2022-11-30T04:58:14.270Z,315.00
2022-11-30T04:59:14.276Z,315.00
2022-11-30T05:00:14.292Z,315.00
2022-11-30T05:01:14.281Z,315.00
2022-11-30T05:02:14.296Z,315.00
2022-11-30T05:03:14.338Z,315.00
2022-11-30T05:04:14.397Z,315.00
2022-11-30T05:05:14.353Z,315.00
2022-11-30T05:06:14.367Z,315.00
2022-11-30T05:07:14.362Z,315.00
2022-11-30T05:08:14.378Z,315.00
2022-11-30T05:09:14.394Z,315.00
2022-11-30T05:10:14.389Z,315.00
2022-11-30T05:11:14.423Z,315.00
2022-11-30T05:12:14.419Z,315.00
2022-11-30T05:13:14.452Z,315.00
2022-11-30T05:14:14.470Z,315.00
2022-11-30T05:15:14.455Z,315.00
2022-11-30T05:16:14.519Z,315.00
2022-11-30T05:17:14.497Z,315.00
2022-11-30T05:18:14.507Z,315.00
2022-11-30T05:19:14.519Z,315.00
2022-11-30T05:20:14.533Z,315.00
2022-11-30T05:21:14.537Z,315.00
2022-11-30T05:22:14.572Z,315.00
2022-11-30T05:23:14.585Z,315.00
2022-11-30T05:24:14.587Z,315.00
2022-11-30T05:25:14.608Z,315.00
2022-11-30T05:26:14.594Z,315.00
2022-11-30T05:27:19.451Z,315.00
2022-11-30T05:28:14.615Z,315.00
2022-11-30T05:29:14.619Z,315.00
2022-11-30T05:30:14.625Z,315.00
2022-11-30T05:31:14.646Z,315.00
2022-11-30T05:32:14.613Z,315.00
2022-11-30T05:33:14.604Z,315.00
2022-11-30T05:34:14.607Z,315.00
2022-11-30T05:35:14.631Z,315.00
2022-11-30T05:36:14.626Z,315.00
2022-11-30T05:37:14.602Z,315.00
2022-11-30T05:38:14.601Z,315.00
2022-11-30T05:39:14.631Z,315.00
2022-11-30T05:40:14.630Z,315.00
2022-11-30T05:41:14.635Z,315.00
2022-11-30T05:42:14.627Z,315.00
2022-11-30T05:43:14.613Z,315.00
2022-11-30T05:44:14.617Z,315.00
2022-11-30T05:45:14.642Z,315.00
2022-11-30T05:46:14.652Z,315.00
2022-11-30T05:47:14.661Z,315.00
2022-11-30T05:48:14.622Z,315.00
2022-11-30T05:49:14.641Z,315.00
2022-11-30T05:50:14.660Z,315.00
2022-11-30T05:51:14.653Z,315.00
2022-11-30T05:52:14.659Z,315.00
2022-11-30T05:53:14.638Z,315.00
2022-11-30T05:54:14.650Z,315.00
2022-11-30T05:55:14.634Z,315.00
2022-11-30T05:56:14.641Z,315.00
2022-11-30T05:57:14.659Z,315.00
2022-11-30T05:58:14.638Z,315.00
2022-11-30T05:59:14.620Z,315.00
2022-11-30T06:00:14.649Z,315.00
2022-11-30T06:01:14.651Z,315.00
2022-11-30T06:02:14.707Z,315.00
2022-11-30T06:03:14.729Z,315.00
2022-11-30T06:04:14.631Z,315.00
2022-11-30T06:05:14.641Z,315.00
2022-11-30T06:06:14.658Z,315.00
2022-11-30T06:07:14.650Z,315.00
2022-11-30T06:08:14.627Z,315.00
2022-11-30T06:09:14.657Z,315.00
2022-11-30T06:10:14.671Z,315.00
2022-11-30T06:11:14.652Z,315.00
2022-11-30T06:12:14.665Z,315.00
2022-11-30T06:13:14.656Z,315.00
2022-11-30T06:14:14.655Z,315.00
2022-11-30T06:15:14.688Z,315.00
2022-11-30T06:16:14.713Z,315.00
2022-11-30T06:17:14.660Z,315.00
2022-11-30T06:18:14.664Z,315.00
2022-11-30T06:19:14.664Z,315.00
2022-11-30T06:20:14.692Z,315.00
2022-11-30T06:21:15.169Z,315.00
2022-11-30T06:22:14.665Z,315.00
2022-11-30T06:23:14.689Z,315.00
2022-11-30T06:24:14.715Z,315.00
2022-11-30T06:25:14.797Z,315.00
2022-11-30T06:26:14.716Z,315.00
2022-11-30T06:27:14.735Z,315.00
2022-11-30T06:28:14.738Z,315.00
2022-11-30T06:29:14.775Z,315.00
2022-11-30T06:30:14.781Z,315.00
2022-11-30T06:31:14.865Z,315.00
2022-11-30T06:32:14.782Z,315.00
2022-11-30T06:33:14.806Z,315.00
2022-11-30T06:34:14.834Z,315.00
2022-11-30T06:35:14.865Z,315.00
2022-11-30T06:36:14.871Z,315.00
2022-11-30T06:37:14.863Z,315.00
2022-11-30T06:38:14.858Z,315.00
2022-11-30T06:39:14.877Z,315.00
2022-11-30T06:40:14.888Z,315.00
2022-11-30T06:41:14.925Z,315.00
2022-11-30T06:42:14.919Z,315.00
2022-11-30T06:43:14.923Z,315.00
2022-11-30T06:44:14.946Z,315.00
2022-11-30T06:45:14.934Z,315.00
2022-11-30T06:46:15.023Z,315.00
2022-11-30T06:47:14.971Z,315.00
2022-11-30T06:48:15.004Z,315.00
2022-11-30T06:49:14.988Z,315.00
2022-11-30T06:50:15.025Z,315.00
2022-11-30T06:51:15.023Z,315.00
2022-11-30T06:52:15.024Z,315.00
2022-11-30T06:53:15.047Z,315.00
2022-11-30T06:54:15.065Z,315.00
2022-11-30T06:55:15.092Z,315.00
2022-11-30T06:56:15.199Z,315.00
2022-11-30T06:57:15.214Z,315.00
2022-11-30T06:58:15.122Z,315.00
2022-11-30T06:59:15.120Z,315.00
2022-11-30T07:00:15.141Z,315.00
2022-11-30T07:01:15.276Z,315.00
2022-11-30T07:02:18.277Z,315.00
2022-11-30T07:03:15.141Z,315.00
2022-11-30T07:04:15.207Z,315.00
2022-11-30T07:05:15.139Z,315.00
2022-11-30T07:06:15.147Z,315.00
2022-11-30T07:07:15.188Z,315.00
2022-11-30T07:08:15.169Z,315.00
2022-11-30T07:09:15.167Z,315.00
2022-11-30T07:10:19.966Z,315.00
2022-11-30T07:11:15.169Z,315.00
2022-11-30T07:12:15.171Z,315.00
2022-11-30T07:13:15.177Z,315.00
2022-11-30T07:14:15.160Z,315.00
2022-11-30T07:15:15.152Z,315.00
2022-11-30T07:16:15.220Z,315.00
2022-11-30T07:17:15.168Z,315.00
2022-11-30T07:18:15.172Z,315.00
2022-11-30T07:19:15.168Z,315.00
2022-11-30T07:20:15.161Z,315.00
2022-11-30T07:21:15.150Z,315.00
2022-11-30T07:22:15.175Z,315.00
2022-11-30T07:23:15.193Z,315.00
2022-11-30T07:24:15.195Z,315.00
2022-11-30T07:25:15.150Z,315.00
2022-11-30T07:26:15.172Z,315.00
2022-11-30T07:27:15.175Z,315.00
2022-11-30T07:28:15.211Z,315.00
2022-11-30T07:29:15.198Z,315.00
2022-11-30T07:30:15.205Z,315.00
2022-11-30T07:31:16.701Z,315.00
2022-11-30T07:32:15.250Z,315.00
2022-11-30T07:33:15.166Z,315.00
2022-11-30T07:34:15.197Z,315.00
2022-11-30T07:35:15.205Z,315.00
2022-11-30T07:36:15.195Z,315.00
2022-11-30T07:37:15.209Z,315.00
2022-11-30T07:38:15.206Z,315.00
2022-11-30T07:39:15.182Z,315.00
2022-11-30T07:40:15.235Z,315.00
2022-11-30T07:41:15.168Z,315.00
2022-11-30T07:42:15.178Z,315.00
2022-11-30T07:43:15.196Z,315.00
2022-11-30T07:44:15.185Z,315.00
2022-11-30T07:45:15.191Z,315.00
2022-11-30T07:46:15.245Z,315.00
2022-11-30T07:47:15.202Z,315.00
2022-11-30T07:48:15.210Z,315.00
2022-11-30T07:49:15.199Z,315.00
2022-11-30T07:50:15.221Z,315.00
2022-11-30T07:51:15.416Z,315.00
2022-11-30T07:52:15.212Z,315.00
2022-11-30T07:53:31.962Z,315.00
2022-11-30T07:54:31.991Z,315.00
2022-11-30T07:55:32.012Z,315.00
2022-11-30T07:56:32.009Z,315.00
2022-11-30T07:57:31.978Z,315.00
2022-11-30T07:58:31.984Z,315.00
2022-11-30T07:59:31.969Z,315.00
2022-11-30T08:00:31.985Z,315.00
2022-11-30T08:01:32.131Z,315.00
2022-11-30T08:02:32.027Z,315.00
2022-11-30T08:03:36.589Z,315.00
2022-11-30T08:04:31.986Z,315.00
2022-11-30T08:05:31.966Z,315.00
2022-11-30T08:06:31.979Z,315.00
2022-11-30T08:07:32.088Z,315.00
2022-11-30T08:08:31.974Z,315.00
2022-11-30T08:09:31.974Z,315.00
2022-11-30T08:10:31.981Z,315.00
2022-11-30T08:11:31.994Z,315.00
2022-11-30T08:12:32.000Z,315.00
2022-11-30T08:13:31.978Z,315.00
2022-11-30T08:14:45.388Z,315.00
2022-11-30T08:15:33.347Z,315.00
2022-11-30T08:16:32.074Z,315.00
2022-11-30T08:17:31.989Z,315.00
2022-11-30T08:18:31.990Z,315.00
2022-11-30T08:19:32.010Z,315.00
2022-11-30T08:20:32.008Z,315.00
2022-11-30T08:21:31.995Z,315.00
2022-11-30T08:22:32.018Z,315.00
2022-11-30T08:23:31.997Z,315.00
2022-11-30T08:24:32.055Z,315.00
2022-11-30T08:25:31.997Z,315.00
2022-11-30T08:26:32.011Z,315.00
2022-11-30T08:27:32.000Z,315.00
2022-11-30T08:28:32.129Z,315.00
2022-11-30T08:29:32.152Z,315.00
2022-11-30T08:30:32.786Z,315.00
2022-11-30T08:31:32.245Z,315.00
2022-11-30T08:32:32.223Z,315.00
2022-11-30T08:33:32.211Z,315.00
2022-11-30T08:34:32.242Z,315.00
2022-11-30T08:35:32.205Z,315.00
2022-11-30T08:36:32.229Z,315.00
2022-11-30T08:37:32.248Z,315.00
2022-11-30T08:38:32.258Z,315.00
2022-11-30T08:39:32.261Z,315.00
2022-11-30T08:40:32.282Z,315.00
2022-11-30T08:41:32.308Z,315.00
2022-11-30T08:42:32.329Z,315.00
2022-11-30T08:43:32.320Z,315.00
2022-11-30T08:44:32.333Z,315.00
2022-11-30T08:45:32.338Z,315.00
2022-11-30T08:46:50.772Z,315.00
2022-11-30T08:47:32.474Z,315.00
2022-11-30T08:48:32.361Z,315.00
2022-11-30T08:49:32.351Z,315.00
2022-11-30T08:50:32.362Z,315.00
2022-11-30T08:51:53.837Z,315.00
2022-11-30T08:52:32.385Z,315.00
2022-11-30T08:53:32.369Z,315.00
2022-11-30T08:54:32.369Z,315.00
2022-11-30T08:55:32.379Z,315.00
2022-11-30T08:56:32.362Z,315.00
2022-11-30T08:57:32.386Z,315.00
2022-11-30T08:58:32.369Z,315.00
2022-11-30T08:59:32.373Z,315.00
2022-11-30T09:00:32.366Z,315.00
2022-11-30T09:01:33.287Z,315.00
2022-11-30T09:02:32.418Z,315.00
2022-11-30T09:03:32.375Z,315.00
2022-11-30T09:04:32.373Z,315.00
2022-11-30T09:05:32.386Z,315.00
2022-11-30T09:06:32.367Z,315.00
2022-11-30T09:07:32.449Z,315.00
2022-11-30T09:08:33.549Z,317.05
2022-11-30T09:09:32.397Z,315.00
2022-11-30T09:10:32.375Z,315.00
2022-11-30T09:11:32.379Z,315.00
2022-11-30T09:12:32.410Z,315.00
2022-11-30T09:13:32.405Z,315.00
2022-11-30T09:14:32.407Z,315.00
2022-11-30T09:15:32.531Z,315.00
2022-11-30T09:16:32.432Z,315.00
2022-11-30T09:17:32.460Z,315.00
2022-11-30T09:18:32.471Z,315.00
2022-11-30T09:19:32.475Z,315.00
2022-11-30T09:20:32.484Z,315.00
2022-11-30T09:21:32.508Z,315.00
2022-11-30T09:22:32.537Z,315.00
2022-11-30T09:23:32.553Z,315.00
2022-11-30T09:24:32.541Z,315.00
2022-11-30T09:25:32.539Z,315.00
2022-11-30T09:26:32.554Z,315.00
2022-11-30T09:27:32.589Z,315.00
2022-11-30T09:28:32.574Z,315.00
2022-11-30T09:29:32.584Z,315.00
2022-11-30T09:30:32.633Z,315.00
2022-11-30T09:31:32.622Z,315.00
2022-11-30T09:32:32.653Z,315.00
2022-11-30T09:33:32.623Z,310.06
2022-11-30T09:34:32.661Z,225.00
2022-11-30T09:35:32.649Z,311.73
2022-11-30T09:36:32.693Z,0.00
2022-11-30T09:37:32.710Z,0.00
2022-11-30T09:38:32.692Z,356.51
2022-11-30T09:39:32.732Z,315.00
2022-11-30T09:40:35.631Z,315.00
2022-11-30T09:41:32.731Z,315.00
2022-11-30T09:42:32.729Z,315.00
2022-11-30T09:43:32.745Z,315.00
2022-11-30T09:44:32.729Z,315.00
2022-11-30T09:45:32.807Z,315.00
2022-11-30T09:46:32.722Z,315.00
2022-11-30T09:47:32.758Z,315.00
2022-11-30T09:48:32.746Z,315.00
2022-11-30T09:49:32.757Z,315.00
2022-11-30T09:50:32.737Z,315.00
2022-11-30T09:51:32.726Z,315.00
2022-11-30T09:52:32.744Z,315.00
2022-11-30T09:53:32.768Z,315.00
2022-11-30T09:54:32.728Z,315.00
2022-11-30T09:55:32.736Z,315.00
2022-11-30T09:56:32.741Z,315.00
2022-11-30T09:57:32.762Z,315.00
2022-11-30T09:58:32.757Z,315.00
2022-11-30T09:59:32.745Z,315.00
2022-11-30T10:00:32.756Z,315.00
2022-11-30T10:01:33.133Z,318.99
2022-11-30T10:02:32.900Z,45.00
2022-11-30T10:03:32.780Z,6.23
2022-11-30T10:04:32.771Z,314.15
2022-11-30T10:05:32.756Z,248.97
2022-11-30T10:06:32.772Z,315.00
2022-11-30T10:07:32.845Z,315.00
2022-11-30T10:08:32.783Z,315.00
2022-11-30T10:09:32.751Z,315.00
2022-11-30T10:10:33.580Z,315.00
2022-11-30T10:11:32.756Z,315.00
2022-11-30T10:12:32.766Z,315.00
2022-11-30T10:13:32.814Z,315.00
2022-11-30T10:14:32.768Z,315.00
2022-11-30T10:15:32.811Z,315.00
2022-11-30T10:16:32.865Z,315.00
2022-11-30T10:17:32.750Z,315.00
2022-11-30T10:18:32.763Z,315.00
2022-11-30T10:19:32.774Z,315.00
2022-11-30T10:20:32.755Z,315.00
2022-11-30T10:21:32.785Z,315.00
2022-11-30T10:22:32.764Z,315.00
2022-11-30T10:23:32.781Z,286.84
2022-11-30T10:24:32.781Z,225.00
2022-11-30T10:25:32.769Z,225.00
2022-11-30T10:26:32.798Z,225.00
2022-11-30T10:27:32.790Z,225.00
2022-11-30T10:28:47.773Z,255.16
2022-11-30T10:29:32.789Z,315.00
2022-11-30T10:30:32.763Z,315.00
2022-11-30T10:31:32.870Z,315.00
2022-11-30T10:32:32.779Z,315.00
2022-11-30T10:33:38.206Z,259.06
2022-11-30T10:34:32.802Z,225.00
2022-11-30T10:35:32.782Z,225.00
2022-11-30T10:36:32.771Z,225.00
2022-11-30T10:37:32.786Z,225.00
2022-11-30T10:38:32.781Z,225.00
2022-11-30T10:39:32.792Z,225.00
2022-11-30T10:40:32.792Z,225.00
2022-11-30T10:41:32.775Z,225.00
2022-11-30T10:42:32.791Z,225.00
2022-11-30T10:43:32.774Z,297.02
2022-11-30T10:44:32.831Z,0.00
2022-11-30T10:45:32.811Z,0.00
2022-11-30T10:46:32.829Z,0.00
2022-11-30T10:47:32.791Z,0.00
2022-11-30T10:48:32.801Z,0.00
2022-11-30T10:49:32.809Z,0.00
2022-11-30T10:50:32.803Z,0.00
2022-11-30T10:51:32.827Z,0.00
2022-11-30T10:52:32.817Z,0.00
2022-11-30T10:53:32.808Z,9.56
2022-11-30T10:54:32.823Z,135.00
2022-11-30T10:55:32.805Z,135.00
2022-11-30T10:56:32.786Z,52.03
2022-11-30T10:57:32.820Z,332.83
2022-11-30T10:58:32.800Z,315.00
2022-11-30T10:59:32.824Z,315.00
2022-11-30T11:00:32.839Z,315.00
2022-11-30T11:01:32.823Z,315.00
2022-11-30T11:02:32.872Z,315.00
2022-11-30T11:03:32.819Z,315.00
2022-11-30T11:04:32.876Z,315.00
2022-11-30T11:05:32.801Z,315.00
2022-11-30T11:06:32.923Z,315.00
2022-11-30T11:07:32.902Z,315.00
2022-11-30T11:08:32.805Z,315.00
2022-11-30T11:09:32.826Z,315.00
2022-11-30T11:10:32.831Z,315.00
2022-11-30T11:11:32.814Z,315.00
2022-11-30T11:12:32.810Z,315.00
2022-11-30T11:13:32.831Z,315.00
2022-11-30T11:14:37.653Z,315.00
2022-11-30T11:15:32.928Z,315.00
2022-11-30T11:16:32.831Z,315.00
2022-11-30T11:17:32.833Z,315.00
2022-11-30T11:18:32.809Z,315.00
2022-11-30T11:19:32.874Z,315.00
2022-11-30T11:20:32.840Z,315.00
2022-11-30T11:21:32.821Z,315.00
2022-11-30T11:22:32.831Z,315.00
2022-11-30T11:23:32.843Z,315.00
2022-11-30T11:24:32.845Z,315.00
2022-11-30T11:25:32.835Z,315.00
2022-11-30T11:26:32.828Z,315.00
2022-11-30T11:27:32.842Z,315.00
2022-11-30T11:28:32.861Z,323.78
2022-11-30T11:29:32.848Z,0.00
2022-11-30T11:30:32.854Z,0.00
2022-11-30T11:31:32.929Z,341.36
2022-11-30T11:32:32.825Z,315.00
2022-11-30T11:33:32.836Z,315.00
2022-11-30T11:34:32.853Z,315.00
2022-11-30T11:35:32.844Z,315.00
2022-11-30T11:36:32.861Z,315.00
2022-11-30T11:37:32.874Z,315.00
2022-11-30T11:38:32.837Z,315.00
2022-11-30T11:39:32.836Z,315.00
2022-11-30T11:40:32.837Z,315.00
2022-11-30T11:41:32.837Z,315.00
2022-11-30T11:42:32.862Z,315.00
2022-11-30T11:43:32.850Z,315.00
2022-11-30T11:44:32.856Z,315.00
2022-11-30T11:45:32.873Z,315.00
2022-11-30T11:46:32.880Z,315.00
2022-11-30T11:47:32.870Z,315.00
2022-11-30T11:48:32.859Z,315.00
2022-11-30T11:49:32.855Z,315.00
2022-11-30T11:51:05.131Z,324.26
2022-11-30T11:51:32.852Z,90.00
2022-11-30T11:52:32.874Z,90.00
2022-11-30T11:53:32.883Z,114.80
2022-11-30T11:54:32.858Z,225.00
2022-11-30T11:55:32.855Z,225.00
2022-11-30T11:56:32.857Z,225.00
2022-11-30T11:57:32.873Z,225.00
2022-11-30T11:58:32.889Z,225.00
2022-11-30T11:59:32.991Z,225.00
2022-11-30T12:00:32.863Z,225.00
2022-11-30T12:01:39.879Z,225.00
2022-11-30T12:02:32.921Z,225.00
2022-11-30T12:03:32.868Z,228.87
2022-11-30T12:04:33.028Z,319.97
2022-11-30T12:05:32.877Z,0.00
2022-11-30T12:06:32.860Z,309.70
2022-11-30T12:07:32.909Z,315.00
2022-11-30T12:08:32.874Z,315.00
2022-11-30T12:09:32.882Z,315.00
2022-11-30T12:10:51.872Z,315.00
2022-11-30T12:11:32.882Z,315.00
2022-11-30T12:12:32.856Z,315.00
2022-11-30T12:13:32.899Z,315.00
2022-11-30T12:14:32.887Z,315.00
2022-11-30T12:15:32.899Z,315.00
2022-11-30T12:16:32.990Z,315.00
2022-11-30T12:17:32.860Z,302.40
2022-11-30T12:18:32.872Z,180.00
2022-11-30T12:19:32.864Z,201.59
2022-11-30T12:20:32.885Z,315.00
2022-11-30T12:21:32.896Z,342.04
2022-11-30T12:22:32.898Z,169.37
2022-11-30T12:23:32.883Z,180.00
2022-11-30T12:24:32.887Z,180.00
2022-11-30T12:25:32.911Z,180.00
2022-11-30T12:26:32.885Z,180.00
2022-11-30T12:27:32.901Z,180.00
2022-11-30T12:28:32.895Z,180.00
2022-11-30T12:29:32.891Z,180.00
2022-11-30T12:30:32.886Z,180.00